| time (UTC) | temp F | wind direction | speed MPH | gust MPH | rain 1hr in | rain 24hr in | rain mn in | humidity % | barometer mb |
| 20260508185028 | 73 | 62 | 1.0 | 3.0 | 0.00 | 0.00 | 0.00 | 44 | 1015.3 |
| 20260508184525 | 73 | 105 | 2.0 | 2.0 | 0.00 | 0.00 | 0.00 | 42 | 1015.2 |
| 20260508184022 | 72 | 125 | 0.0 | 1.0 | 0.00 | 0.00 | 0.00 | 44 | 1015.1 |
| 20260508183519 | 74 | 233 | 2.0 | 5.0 | 0.00 | 0.00 | 0.00 | 44 | 1015.1 |
| 20260508183014 | 73 | 123 | 1.0 | 1.0 | 0.00 | 0.00 | 0.00 | 48 | 1015.3 |
| 20260508182511 | 73 | 129 | 0.0 | 3.0 | 0.00 | 0.00 | 0.00 | 47 | 1015.6 |
| 20260508182007 | 71 | 132 | 0.0 | 2.0 | 0.00 | 0.00 | 0.00 | 50 | 1015.4 |
| 20260508181503 | 71 | 121 | 0.0 | 1.0 | 0.00 | 0.00 | 0.00 | 44 | 1015.4 |
| 20260508181001 | 70 | 321 | 3.0 | 5.0 | 0.00 | 0.00 | 0.00 | 47 | 1015.8 |
| 20260508180457 | 68 | 121 | 1.0 | 6.0 | 0.00 | 0.00 | 0.00 | 52 | 1015.4 |
| 20260508175953 | 70 | 320 | 5.0 | 6.0 | 0.00 | 0.00 | 0.00 | 49 | 1015.7 |
| 20260508175450 | 68 | 121 | 0.0 | 0.0 | 0.00 | 0.00 | 0.00 | 53 | 1015.5 |
| 20260508174948 | 68 | 112 | 1.0 | 1.0 | 0.00 | 0.00 | 0.00 | 52 | 1016.0 |
| 20260508174445 | 70 | 133 | 1.0 | 1.0 | 0.00 | 0.00 | 0.00 | 50 | 1015.7 |
| 20260508173942 | 71 | 125 | 0.0 | 1.0 | 0.00 | 0.00 | 0.00 | 50 | 1015.9 |
| 20260508173439 | 70 | 130 | 0.0 | 0.0 | 0.00 | 0.00 | 0.00 | 50 | 1015.8 |
| 20260508172935 | 68 | 131 | 0.0 | 0.0 | 0.00 | 0.00 | 0.00 | 55 | 1016.2 |
| 20260508172432 | 68 | 123 | 0.0 | 0.0 | 0.00 | 0.00 | 0.00 | 56 | 1016.1 |
| 20260508171929 | 68 | 111 | 0.0 | 0.0 | 0.00 | 0.00 | 0.00 | 54 | 1016.3 |
| 20260508171425 | 69 | 118 | 0.0 | 3.0 | 0.00 | 0.00 | 0.00 | 50 | 1016.2 |
| 20260508170922 | 70 | 56 | 0.0 | 2.0 | 0.00 | 0.00 | 0.00 | 46 | 1016.2 |
| 20260508170419 | 70 | 124 | 0.0 | 2.0 | 0.00 | 0.00 | 0.00 | 52 | 1016.3 |
| 20260508165915 | 68 | 102 | 0.0 | 1.0 | 0.00 | 0.00 | 0.00 | 50 | 1016.2 |
| 20260508165414 | 67 | 123 | 1.0 | 1.0 | 0.00 | 0.00 | 0.00 | 51 | 1016.5 |
| 20260508164909 | 69 | 103 | 1.0 | 2.0 | 0.00 | 0.00 | 0.00 | 48 | 1016.6 |
| 20260508164407 | 69 | 161 | 1.0 | 2.0 | 0.00 | 0.00 | 0.00 | 48 | 1017.0 |
| 20260508163904 | 69 | 124 | 0.0 | 2.0 | 0.00 | 0.00 | 0.00 | 52 | 1016.7 |
| 20260508163402 | 70 | 116 | 0.0 | 2.0 | 0.00 | 0.00 | 0.00 | 51 | 1016.8 |
| 20260508162856 | 70 | 131 | 1.0 | 2.0 | 0.00 | 0.00 | 0.00 | 50 | 1016.9 |
| 20260508162354 | 68 | 137 | 1.0 | 1.0 | 0.00 | 0.00 | 0.00 | 51 | 1017.0 |
| 20260508161851 | 68 | 132 | 1.0 | 1.0 | 0.00 | 0.00 | 0.00 | 57 | 1016.9 |
| 20260508161349 | 68 | 97 | 2.0 | 2.0 | 0.00 | 0.00 | 0.00 | 55 | 1017.1 |
| 20260508160846 | 68 | 106 | 0.0 | 1.0 | 0.00 | 0.00 | 0.00 | 51 | 1016.9 |
| 20260508160344 | 69 | 132 | 1.0 | 1.0 | 0.00 | 0.00 | 0.00 | 53 | 1017.2 |
| 20260508155840 | 68 | 136 | 0.0 | 1.0 | 0.00 | 0.00 | 0.00 | 50 | 1017.3 |
| 20260508155338 | 68 | 186 | 3.0 | 3.0 | 0.00 | 0.00 | 0.00 | 50 | 1017.3 |
| 20260508154834 | 68 | 127 | 1.0 | 1.0 | 0.00 | 0.00 | 0.00 | 56 | 1017.4 |
| 20260508154332 | 67 | 81 | 2.0 | 3.0 | 0.00 | 0.00 | 0.00 | 54 | 1017.5 |
| 20260508153828 | 68 | 127 | 0.0 | 0.0 | 0.00 | 0.00 | 0.00 | 53 | 1017.5 |
| 20260508153326 | 67 | 115 | 0.0 | 0.0 | 0.00 | 0.00 | 0.00 | 54 | 1017.6 |
| 20260508152821 | 66 | 119 | 0.0 | 0.0 | 0.00 | 0.00 | 0.00 | 58 | 1017.4 |
| 20260508152318 | 65 | 107 | 1.0 | 2.0 | 0.00 | 0.00 | 0.00 | 54 | 1017.5 |
| 20260508151814 | 66 | 59 | 2.0 | 2.0 | 0.00 | 0.00 | 0.00 | 54 | 1017.5 |
| 20260508151312 | 66 | 120 | 0.0 | 2.0 | 0.00 | 0.00 | 0.00 | 57 | 1017.6 |
| 20260508150808 | 66 | 158 | 1.0 | 2.0 | 0.00 | 0.00 | 0.00 | 52 | 1017.3 |
| 20260508150305 | 66 | 119 | 0.0 | 2.0 | 0.00 | 0.00 | 0.00 | 57 | 1017.5 |
| 20260508145802 | 66 | 100 | 0.0 | 1.0 | 0.00 | 0.00 | 0.00 | 58 | 1017.3 |
| 20260508145257 | 65 | 112 | 0.0 | 1.0 | 0.00 | 0.00 | 0.00 | 61 | 1017.2 |
| 20260508144754 | 65 | 97 | 1.0 | 1.0 | 0.00 | 0.00 | 0.00 | 57 | 1017.6 |
| 20260508144252 | 66 | 100 | 1.0 | 1.0 | 0.00 | 0.00 | 0.00 | 55 | 1017.4 |
| 20260508143749 | 65 | 129 | 0.0 | 2.0 | 0.00 | 0.00 | 0.00 | 57 | 1017.7 |
| 20260508143246 | 65 | 134 | 0.0 | 1.0 | 0.00 | 0.00 | 0.00 | 59 | 1017.5 |
| 20260508142742 | 64 | 102 | 0.0 | 1.0 | 0.00 | 0.00 | 0.00 | 58 | 1017.4 |
| 20260508142239 | 63 | 94 | 1.0 | 2.0 | 0.00 | 0.00 | 0.00 | 58 | 1017.7 |
| 20260508141736 | 63 | 103 | 0.0 | 2.0 | 0.00 | 0.00 | 0.00 | 60 | 1017.5 |
| 20260508141233 | 62 | 96 | 1.0 | 2.0 | 0.00 | 0.00 | 0.00 | 61 | 1017.5 |
| 20260508140731 | 62 | 102 | 0.0 | 1.0 | 0.00 | 0.00 | 0.00 | 63 | 1017.9 |
| 20260508140227 | 62 | 147 | 2.0 | 2.0 | 0.00 | 0.00 | 0.00 | 66 | 1017.8 |
| 20260508135723 | 61 | 116 | 1.0 | 2.0 | 0.00 | 0.00 | 0.00 | 67 | 1017.7 |
| 20260508135220 | 61 | 112 | 0.0 | 0.0 | 0.00 | 0.00 | 0.00 | 69 | 1017.8 |
| 20260508134715 | 61 | 124 | 0.0 | 2.0 | 0.00 | 0.00 | 0.00 | 71 | 1017.9 |
| 20260508134213 | 60 | 91 | 1.0 | 2.0 | 0.00 | 0.00 | 0.00 | 68 | 1017.7 |
| 20260508133709 | 60 | 124 | 0.0 | 1.0 | 0.00 | 0.00 | 0.00 | 70 | 1017.7 |
| 20260508133207 | 60 | 136 | 0.0 | 1.0 | 0.00 | 0.00 | 0.00 | 73 | 1017.4 |
| 20260508132705 | 60 | 112 | 0.0 | 0.0 | 0.00 | 0.00 | 0.00 | 77 | 1017.3 |
| 20260508132202 | 59 | 116 | 0.0 | 0.0 | 0.00 | 0.00 | 0.00 | 80 | 1017.4 |
| 20260508131657 | 59 | 113 | 0.0 | 0.0 | 0.00 | 0.00 | 0.00 | 81 | 1017.4 |
| 20260508131154 | 58 | 111 | 0.0 | 0.0 | 0.00 | 0.00 | 0.00 | 82 | 1017.4 |
| 20260508130650 | 57 | 92 | 1.0 | 1.0 | 0.00 | 0.00 | 0.00 | 84 | 1017.5 |
| 20260508130148 | 55 | 117 | 0.0 | 0.0 | 0.00 | 0.00 | 0.00 | 92 | 1017.3 |
| 20260508125643 | 54 | 95 | 1.0 | 1.0 | 0.00 | 0.00 | 0.00 | 97 | 1017.4 |
| 20260508125140 | 54 | 110 | 0.0 | 0.0 | 0.00 | 0.00 | 0.00 | 99 | 1017.1 |
| 20260508124638 | 54 | 106 | 0.0 | 0.0 | 0.00 | 0.00 | 0.00 | 99 | 1017.2 |
| 20260508124135 | 54 | 120 | 0.0 | 0.0 | 0.00 | 0.00 | 0.00 | 99 | 1017.3 |
| 20260508123633 | 54 | 117 | 0.0 | 0.0 | 0.00 | 0.00 | 0.00 | 99 | 1017.1 |
| 20260508123131 | 53 | 115 | 0.0 | 0.0 | 0.00 | 0.00 | 0.00 | 99 | 1017.1 |
| 20260508122626 | 53 | 116 | 0.0 | 0.0 | 0.00 | 0.00 | 0.00 | 99 | 1016.9 |
| 20260508122124 | 54 | 122 | 0.0 | 0.0 | 0.00 | 0.00 | 0.00 | 99 | 1016.9 |
| 20260508121622 | 53 | 118 | 0.0 | 0.0 | 0.00 | 0.00 | 0.00 | 99 | 1016.6 |
| 20260508121120 | 53 | 113 | 0.0 | 0.0 | 0.00 | 0.00 | 0.00 | 99 | 1016.8 |
| 20260508120617 | 52 | 113 | 0.0 | 0.0 | 0.00 | 0.00 | 0.00 | 99 | 1016.6 |
| 20260508120115 | 52 | 113 | 0.0 | 0.0 | 0.00 | 0.00 | 0.00 | 99 | 1016.5 |
| 20260508115612 | 52 | 113 | 0.0 | 0.0 | 0.00 | 0.00 | 0.00 | 99 | 1016.6 |
| 20260508115109 | 51 | 113 | 0.0 | 0.0 | 0.00 | 0.00 | 0.00 | 99 | 1016.5 |
| 20260508114606 | 51 | 113 | 0.0 | 0.0 | 0.00 | 0.00 | 0.00 | 99 | 1016.4 |
| 20260508114102 | 50 | 113 | 0.0 | 0.0 | 0.00 | 0.00 | 0.00 | 99 | 1016.3 |
| 20260508113600 | 50 | 113 | 0.0 | 0.0 | 0.00 | 0.00 | 0.00 | 99 | 1016.4 |
| 20260508113058 | 50 | 113 | 0.0 | 0.0 | 0.00 | 0.00 | 0.00 | 99 | 1016.3 |
| 20260508112553 | 50 | 113 | 0.0 | 0.0 | 0.00 | 0.00 | 0.00 | 99 | 1016.4 |
| 20260508112051 | 50 | 113 | 0.0 | 0.0 | 0.00 | 0.00 | 0.00 | 99 | 1016.1 |
| 20260508111548 | 49 | 113 | 0.0 | 0.0 | 0.00 | 0.00 | 0.00 | 99 | 1016.1 |
| 20260508111045 | 49 | 113 | 0.0 | 0.0 | 0.00 | 0.00 | 0.00 | 99 | 1015.8 |
| 20260508110543 | 49 | 113 | 0.0 | 0.0 | 0.00 | 0.00 | 0.00 | 99 | 1015.9 |
| 20260508110038 | 49 | 113 | 0.0 | 0.0 | 0.00 | 0.00 | 0.00 | 99 | 1015.8 |
| 20260508105533 | 49 | 113 | 0.0 | 0.0 | 0.00 | 0.00 | 0.00 | 99 | 1015.7 |
| 20260508105031 | 48 | 113 | 0.0 | 0.0 | 0.00 | 0.00 | 0.00 | 99 | 1015.8 |
| 20260508104529 | 48 | 113 | 0.0 | 0.0 | 0.00 | 0.00 | 0.00 | 99 | 1015.5 |
| 20260508104025 | 48 | 113 | 0.0 | 0.0 | 0.00 | 0.00 | 0.00 | 99 | 1015.4 |
| 20260508103522 | 48 | 113 | 0.0 | 0.0 | 0.00 | 0.00 | 0.00 | 99 | 1015.4 |
| 20260508103019 | 48 | 113 | 0.0 | 0.0 | 0.00 | 0.00 | 0.00 | 99 | 1015.1 |
| 20260508102517 | 48 | 113 | 0.0 | 0.0 | 0.00 | 0.00 | 0.00 | 99 | 1015.0 |
| 20260508102014 | 48 | 113 | 0.0 | 0.0 | 0.00 | 0.00 | 0.00 | 99 | 1014.9 |
| 20260508101512 | 48 | 113 | 0.0 | 0.0 | 0.00 | 0.00 | 0.00 | 99 | 1014.9 |
| 20260508101008 | 48 | 113 | 0.0 | 0.0 | 0.00 | 0.00 | 0.00 | 99 | 1015.0 |
| 20260508100507 | 48 | 113 | 0.0 | 0.0 | 0.00 | 0.00 | 0.00 | 99 | 1014.8 |
| 20260508100004 | 49 | 113 | 0.0 | 0.0 | 0.00 | 0.00 | 0.00 | 99 | 1014.7 |
| 20260508095501 | 49 | 113 | 0.0 | 0.0 | 0.00 | 0.00 | 0.00 | 99 | 1014.8 |
| 20260508094957 | 49 | 113 | 0.0 | 0.0 | 0.00 | 0.00 | 0.00 | 99 | 1014.7 |
| 20260508094454 | 49 | 113 | 0.0 | 0.0 | 0.00 | 0.00 | 0.00 | 99 | 1014.9 |
| 20260508093951 | 49 | 113 | 0.0 | 0.0 | 0.00 | 0.00 | 0.00 | 99 | 1014.8 |
| 20260508093448 | 49 | 113 | 0.0 | 0.0 | 0.00 | 0.00 | 0.00 | 99 | 1014.8 |
| 20260508092946 | 49 | 113 | 0.0 | 0.0 | 0.00 | 0.00 | 0.00 | 99 | 1014.6 |
| 20260508092443 | 49 | 113 | 0.0 | 0.0 | 0.00 | 0.00 | 0.00 | 99 | 1014.6 |
| 20260508091942 | 49 | 113 | 0.0 | 0.0 | 0.00 | 0.00 | 0.00 | 99 | 1014.6 |
| 20260508091438 | 49 | 113 | 0.0 | 0.0 | 0.00 | 0.00 | 0.00 | 99 | 1014.4 |
| 20260508090935 | 49 | 113 | 0.0 | 0.0 | 0.00 | 0.00 | 0.00 | 99 | 1014.4 |
| 20260508090434 | 49 | 113 | 0.0 | 0.0 | 0.00 | 0.00 | 0.00 | 99 | 1014.7 |
| 20260508085929 | 49 | 113 | 0.0 | 0.0 | 0.00 | 0.00 | 0.00 | 99 | 1014.4 |
| 20260508085426 | 49 | 113 | 0.0 | 0.0 | 0.00 | 0.00 | 0.00 | 99 | 1014.3 |
| 20260508084923 | 50 | 113 | 0.0 | 0.0 | 0.00 | 0.00 | 0.00 | 99 | 1014.6 |
| 20260508084420 | 50 | 113 | 0.0 | 0.0 | 0.00 | 0.00 | 0.00 | 99 | 1014.6 |
| 20260508083918 | 50 | 113 | 0.0 | 0.0 | 0.00 | 0.00 | 0.00 | 99 | 1014.3 |
| 20260508083415 | 50 | 113 | 0.0 | 0.0 | 0.00 | 0.00 | 0.00 | 99 | 1014.5 |
| 20260508082914 | 50 | 114 | 0.0 | 0.0 | 0.00 | 0.00 | 0.00 | 99 | 1014.4 |
| 20260508082412 | 50 | 114 | 0.0 | 0.0 | 0.00 | 0.00 | 0.00 | 99 | 1014.4 |
| 20260508081910 | 50 | 114 | 0.0 | 0.0 | 0.00 | 0.00 | 0.00 | 99 | 1014.3 |
| 20260508081407 | 50 | 113 | 0.0 | 0.0 | 0.00 | 0.00 | 0.00 | 99 | 1014.4 |
| 20260508080903 | 50 | 113 | 0.0 | 0.0 | 0.00 | 0.00 | 0.00 | 99 | 1014.2 |
| 20260508080401 | 51 | 113 | 0.0 | 0.0 | 0.00 | 0.00 | 0.00 | 99 | 1014.0 |
| 20260508075857 | 51 | 113 | 0.0 | 0.0 | 0.00 | 0.00 | 0.00 | 99 | 1014.2 |
| 20260508075355 | 51 | 113 | 0.0 | 0.0 | 0.00 | 0.00 | 0.00 | 99 | 1014.2 |
| 20260508074852 | 51 | 114 | 0.0 | 0.0 | 0.00 | 0.00 | 0.00 | 99 | 1013.9 |
| 20260508074349 | 51 | 114 | 0.0 | 0.0 | 0.00 | 0.00 | 0.00 | 99 | 1014.0 |
| 20260508073846 | 51 | 114 | 0.0 | 0.0 | 0.00 | 0.00 | 0.00 | 99 | 1013.9 |
| 20260508073344 | 51 | 114 | 0.0 | 0.0 | 0.00 | 0.00 | 0.00 | 99 | 1014.0 |
| 20260508072840 | 51 | 114 | 0.0 | 0.0 | 0.00 | 0.00 | 0.00 | 99 | 1014.1 |
| 20260508072337 | 51 | 114 | 0.0 | 0.0 | 0.00 | 0.00 | 0.00 | 99 | 1013.9 |
| 20260508071834 | 52 | 114 | 0.0 | 0.0 | 0.00 | 0.00 | 0.00 | 99 | 1013.9 |
| 20260508071332 | 52 | 114 | 0.0 | 0.0 | 0.00 | 0.00 | 0.00 | 99 | 1014.0 |
| 20260508070829 | 52 | 114 | 0.0 | 0.0 | 0.00 | 0.00 | 0.00 | 99 | 1013.9 |
| 20260508070328 | 52 | 114 | 0.0 | 0.0 | 0.00 | 0.00 | 0.00 | 99 | 1013.9 |
| 20260508065825 | 52 | 114 | 0.0 | 0.0 | 0.00 | 0.00 | 0.00 | 99 | 1013.7 |
| 20260508065323 | 52 | 114 | 0.0 | 0.0 | 0.00 | 0.00 | 0.00 | 99 | 1013.9 |
| 20260508064821 | 52 | 114 | 0.0 | 0.0 | 0.00 | 0.00 | 0.00 | 99 | 1013.9 |
| 20260508064318 | 52 | 114 | 0.0 | 0.0 | 0.00 | 0.00 | 0.00 | 99 | 1013.7 |
| 20260508063815 | 52 | 114 | 0.0 | 0.0 | 0.00 | 0.00 | 0.00 | 99 | 1013.5 |
| 20260508063313 | 53 | 114 | 0.0 | 0.0 | 0.00 | 0.00 | 0.00 | 99 | 1013.6 |
| 20260508062810 | 53 | 113 | 0.0 | 0.0 | 0.00 | 0.00 | 0.00 | 99 | 1013.6 |
| 20260508062308 | 53 | 113 | 0.0 | 0.0 | 0.00 | 0.00 | 0.00 | 99 | 1013.7 |
| 20260508061804 | 53 | 109 | 0.0 | 0.0 | 0.00 | 0.00 | 0.00 | 99 | 1013.7 |
| 20260508061302 | 53 | 117 | 0.0 | 0.0 | 0.00 | 0.00 | 0.00 | 99 | 1013.8 |
| 20260508060758 | 53 | 117 | 0.0 | 0.0 | 0.00 | 0.00 | 0.00 | 99 | 1014.0 |
| 20260508060256 | 53 | 117 | 0.0 | 0.0 | 0.00 | 0.00 | 0.00 | 99 | 1014.1 |
| 20260508055751 | 53 | 118 | 0.0 | 0.0 | 0.00 | 0.00 | 0.00 | 99 | 1014.0 |
| 20260508055249 | 54 | 117 | 0.0 | 0.0 | 0.00 | 0.00 | 0.00 | 99 | 1014.0 |
| 20260508054745 | 54 | 117 | 0.0 | 0.0 | 0.00 | 0.00 | 0.00 | 99 | 1013.8 |
| 20260508054243 | 54 | 109 | 0.0 | 0.0 | 0.00 | 0.00 | 0.00 | 99 | 1014.0 |
| 20260508053740 | 54 | 115 | 0.0 | 0.0 | 0.00 | 0.00 | 0.00 | 99 | 1013.7 |
| 20260508053237 | 55 | 114 | 0.0 | 0.0 | 0.00 | 0.00 | 0.00 | 99 | 1014.2 |
| 20260508052734 | 55 | 115 | 0.0 | 0.0 | 0.00 | 0.00 | 0.00 | 99 | 1013.8 |
| 20260508052231 | 55 | 115 | 0.0 | 0.0 | 0.00 | 0.00 | 0.00 | 99 | 1013.7 |
| 20260508051727 | 55 | 115 | 0.0 | 0.0 | 0.00 | 0.00 | 0.00 | 99 | 1013.8 |
| 20260508051223 | 55 | 115 | 0.0 | 0.0 | 0.00 | 0.00 | 0.00 | 99 | 1013.5 |
| 20260508050720 | 55 | 115 | 0.0 | 0.0 | 0.00 | 0.00 | 0.00 | 99 | 1013.7 |
| 20260508050217 | 55 | 115 | 0.0 | 0.0 | 0.00 | 0.00 | 0.00 | 99 | 1013.7 |
| 20260508045712 | 55 | 115 | 0.0 | 0.0 | 0.00 | 0.00 | 0.00 | 99 | 1013.6 |
| 20260508045210 | 56 | 115 | 0.0 | 0.0 | 0.00 | 0.00 | 0.00 | 99 | 1013.7 |
| 20260508044707 | 56 | 115 | 0.0 | 0.0 | 0.00 | 0.00 | 0.00 | 99 | 1013.5 |
| 20260508044204 | 56 | 115 | 0.0 | 0.0 | 0.00 | 0.00 | 0.00 | 99 | 1013.4 |
| 20260508043659 | 56 | 118 | 0.0 | 0.0 | 0.00 | 0.00 | 0.00 | 99 | 1013.2 |
| 20260508043158 | 56 | 118 | 0.0 | 0.0 | 0.00 | 0.00 | 0.00 | 99 | 1013.3 |
| 20260508042654 | 56 | 118 | 0.0 | 0.0 | 0.00 | 0.00 | 0.00 | 99 | 1013.4 |
| 20260508042152 | 57 | 119 | 0.0 | 0.0 | 0.00 | 0.00 | 0.00 | 99 | 1013.4 |
| 20260508041648 | 57 | 119 | 0.0 | 0.0 | 0.00 | 0.00 | 0.00 | 99 | 1013.2 |
| 20260508041145 | 57 | 119 | 0.0 | 0.0 | 0.00 | 0.00 | 0.00 | 99 | 1013.3 |
| 20260508040641 | 57 | 119 | 0.0 | 0.0 | 0.00 | 0.00 | 0.00 | 99 | 1013.6 |
| 20260508040139 | 57 | 119 | 0.0 | 0.0 | 0.00 | 0.00 | 0.00 | 98 | 1013.2 |
| 20260508035636 | 57 | 119 | 0.0 | 0.0 | 0.00 | 1.65 | 1.65 | 98 | 1013.3 |
| 20260508035133 | 57 | 119 | 0.0 | 0.0 | 0.00 | 1.65 | 1.65 | 98 | 1013.2 |
| 20260508034630 | 58 | 113 | 0.0 | 0.0 | 0.00 | 1.65 | 1.65 | 98 | 1013.3 |
| 20260508034127 | 57 | 112 | 0.0 | 0.0 | 0.00 | 1.65 | 1.65 | 98 | 1013.6 |
| 20260508033624 | 58 | 112 | 0.0 | 0.0 | 0.00 | 1.65 | 1.65 | 98 | 1013.2 |
| 20260508033123 | 58 | 112 | 0.0 | 0.0 | 0.00 | 1.65 | 1.65 | 97 | 1013.0 |
| 20260508032618 | 58 | 112 | 0.0 | 0.0 | 0.00 | 1.65 | 1.65 | 97 | 1013.0 |
| 20260508032116 | 58 | 112 | 0.0 | 0.0 | 0.00 | 1.65 | 1.65 | 97 | 1013.0 |
| 20260508031613 | 58 | 112 | 0.0 | 0.0 | 0.00 | 1.65 | 1.65 | 96 | 1012.9 |
| 20260508031109 | 59 | 112 | 0.0 | 0.0 | 0.00 | 1.65 | 1.65 | 96 | 1013.0 |
| 20260508030606 | 59 | 112 | 0.0 | 0.0 | 0.00 | 1.65 | 1.65 | 96 | 1013.3 |
| 20260508030104 | 59 | 112 | 0.0 | 0.0 | 0.00 | 1.65 | 1.65 | 96 | 1013.0 |
| 20260508025559 | 59 | 111 | 0.0 | 0.0 | 0.00 | 1.65 | 1.65 | 95 | 1012.9 |
| 20260508025057 | 59 | 111 | 0.0 | 0.0 | 0.00 | 1.65 | 1.65 | 95 | 1012.9 |
| 20260508024553 | 59 | 115 | 0.0 | 0.0 | 0.00 | 1.65 | 1.65 | 95 | 1012.8 |
| 20260508024050 | 60 | 115 | 0.0 | 0.0 | 0.00 | 1.65 | 1.65 | 95 | 1012.7 |
| 20260508023546 | 60 | 112 | 0.0 | 0.0 | 0.00 | 1.65 | 1.65 | 95 | 1012.7 |
| 20260508023044 | 60 | 118 | 0.0 | 0.0 | 0.00 | 1.65 | 1.65 | 95 | 1012.8 |
| 20260508022540 | 60 | 119 | 0.0 | 0.0 | 0.00 | 1.65 | 1.65 | 95 | 1012.6 |
| 20260508022037 | 60 | 111 | 0.0 | 0.0 | 0.00 | 1.65 | 1.65 | 95 | 1012.5 |
| 20260508021532 | 60 | 114 | 0.0 | 0.0 | 0.00 | 1.65 | 1.65 | 94 | 1012.6 |
| 20260508021028 | 60 | 114 | 0.0 | 0.0 | 0.00 | 1.65 | 1.65 | 94 | 1012.5 |
| 20260508020526 | 60 | 114 | 0.0 | 0.0 | 0.00 | 1.65 | 1.65 | 94 | 1012.3 |
| 20260508020024 | 60 | 115 | 0.0 | 0.0 | 0.00 | 1.65 | 1.65 | 94 | 1012.5 |
| 20260508015521 | 60 | 107 | 0.0 | 0.0 | 0.00 | 1.65 | 1.65 | 94 | 1012.2 |
| 20260508015018 | 60 | 122 | 0.0 | 0.0 | 0.00 | 1.65 | 1.65 | 94 | 1012.1 |
| 20260508014514 | 60 | 114 | 0.0 | 2.0 | 0.00 | 1.65 | 1.65 | 94 | 1012.1 |
| 20260508014010 | 60 | 121 | 0.0 | 0.0 | 0.00 | 1.65 | 1.65 | 94 | 1011.9 |
| 20260508013501 | 60 | 106 | 0.0 | 1.0 | 0.00 | 1.65 | 1.65 | 93 | 1011.8 |
| 20260508012958 | 60 | 106 | 0.0 | 0.0 | 0.00 | 1.65 | 1.65 | 93 | 1011.7 |
| 20260508012455 | 60 | 118 | 0.0 | 2.0 | 0.00 | 1.65 | 1.65 | 93 | 1011.7 |
| 20260508011952 | 60 | 115 | 1.0 | 1.0 | 0.00 | 1.65 | 1.65 | 94 | 1011.4 |
| 20260508011450 | 60 | 102 | 0.0 | 2.0 | 0.00 | 1.65 | 1.65 | 94 | 1011.3 |
| 20260508010948 | 60 | 103 | 0.0 | 2.0 | 0.00 | 1.65 | 1.65 | 94 | 1011.4 |
| 20260508010445 | 60 | 103 | 0.0 | 1.0 | 0.00 | 1.65 | 1.65 | 93 | 1011.1 |
| 20260508005942 | 60 | 112 | 0.0 | 0.0 | 0.00 | 1.65 | 1.65 | 93 | 1010.8 |
| 20260508005439 | 60 | 107 | 0.0 | 0.0 | 0.00 | 1.65 | 1.65 | 93 | 1010.9 |
| 20260508004935 | 61 | 122 | 0.0 | 1.0 | 0.00 | 1.65 | 1.65 | 92 | 1010.9 |
| 20260508004431 | 61 | 120 | 0.0 | 0.0 | 0.00 | 1.65 | 1.65 | 92 | 1010.8 |
| 20260508003928 | 61 | 128 | 0.0 | 0.0 | 0.00 | 1.65 | 1.65 | 92 | 1010.5 |
| 20260508003425 | 61 | 119 | 0.0 | 0.0 | 0.00 | 1.65 | 1.65 | 93 | 1010.4 |
| 20260508002922 | 61 | 86 | 0.0 | 1.0 | 0.00 | 1.65 | 1.65 | 92 | 1010.3 |
| 20260508002418 | 62 | 119 | 1.0 | 2.0 | 0.00 | 1.65 | 1.65 | 92 | 1010.3 |
| 20260508001915 | 62 | 112 | 0.0 | 1.0 | 0.00 | 1.65 | 1.65 | 91 | 1010.1 |
| 20260508001411 | 63 | 114 | 1.0 | 2.0 | 0.00 | 1.65 | 1.65 | 92 | 1009.9 |
| 20260508000908 | 63 | 115 | 0.0 | 2.0 | 0.00 | 1.65 | 1.65 | 92 | 1010.0 |
| 20260508000405 | 63 | 104 | 0.0 | 2.0 | 0.00 | 1.65 | 1.65 | 92 | 1009.8 |
| 20260507235900 | 64 | 114 | 0.0 | 1.0 | 0.00 | 1.65 | 1.65 | 91 | 1009.4 |
| 20260507235358 | 64 | 108 | 0.0 | 1.0 | 0.00 | 1.65 | 1.65 | 91 | 1009.6 |
| 20260507234855 | 65 | 108 | 0.0 | 1.0 | 0.00 | 1.65 | 1.65 | 90 | 1009.2 |
| 20260507234351 | 65 | 109 | 0.0 | 2.0 | 0.00 | 1.65 | 1.65 | 89 | 1009.1 |
| 20260507233848 | 66 | 91 | 2.0 | 6.0 | 0.00 | 1.65 | 1.65 | 87 | 1008.9 |
| 20260507233345 | 68 | 11 | 2.0 | 3.0 | 0.00 | 1.65 | 1.65 | 85 | 1008.8 |
| 20260507232844 | 70 | 87 | 1.0 | 2.0 | 0.00 | 1.65 | 1.65 | 80 | 1008.1 |
| 20260507232340 | 74 | 134 | 2.0 | 2.0 | 0.00 | 1.65 | 1.65 | 74 | 1008.4 |
| 20260507231837 | 74 | 282 | 1.0 | 3.0 | 0.00 | 1.65 | 1.65 | 73 | 1007.3 |
| 20260507231333 | 74 | 119 | 0.0 | 5.0 | 0.00 | 1.65 | 1.65 | 75 | 1007.1 |
| 20260507230830 | 75 | 118 | 1.0 | 1.0 | 0.00 | 1.65 | 1.65 | 74 | 1007.2 |
| 20260507230327 | 75 | 121 | 1.0 | 5.0 | 0.00 | 1.65 | 1.65 | 74 | 1007.3 |
| 20260507225827 | 75 | 117 | 0.0 | 3.0 | 0.00 | 1.65 | 1.65 | 72 | 1007.1 |
| 20260507225323 | 75 | 113 | 0.0 | 2.0 | 0.00 | 1.65 | 1.65 | 72 | 1006.7 |
| 20260507224819 | 75 | 112 | 2.0 | 5.0 | 0.00 | 1.65 | 1.65 | 75 | 1007.0 |
| 20260507224317 | 75 | 303 | 6.0 | 8.0 | 0.00 | 1.65 | 1.65 | 75 | 1006.8 |
| 20260507223812 | 75 | 121 | 0.0 | 0.0 | 0.00 | 1.65 | 1.65 | 76 | 1006.8 |
| 20260507223309 | 75 | 126 | 0.0 | 2.0 | 0.00 | 1.65 | 1.65 | 75 | 1006.9 |
| 20260507222806 | 75 | 105 | 1.0 | 1.0 | 0.00 | 1.65 | 1.65 | 75 | 1006.4 |
| 20260507222305 | 75 | 93 | 1.0 | 2.0 | 0.00 | 1.65 | 1.65 | 75 | 1006.4 |
| 20260507221800 | 75 | 98 | 1.0 | 3.0 | 0.00 | 1.65 | 1.65 | 75 | 1006.5 |
| 20260507221255 | 75 | 84 | 3.0 | 5.0 | 0.00 | 1.65 | 1.65 | 76 | 1006.5 |
| 20260507220752 | 75 | 113 | 0.0 | 0.0 | 0.00 | 1.65 | 1.65 | 77 | 1006.5 |
| 20260507220251 | 75 | 126 | 0.0 | 2.0 | 0.00 | 1.65 | 1.65 | 76 | 1006.3 |
| 20260507215746 | 75 | 118 | 1.0 | 2.0 | 0.00 | 1.65 | 1.65 | 77 | 1006.3 |
| 20260507215244 | 75 | 131 | 1.0 | 2.0 | 0.00 | 1.65 | 1.65 | 77 | 1006.6 |
| 20260507214741 | 75 | 33 | 3.0 | 3.0 | 0.00 | 1.65 | 1.65 | 77 | 1006.5 |
| 20260507214238 | 75 | 113 | 1.0 | 2.0 | 0.00 | 1.65 | 1.65 | 76 | 1006.2 |
| 20260507213733 | 75 | 119 | 0.0 | 1.0 | 0.00 | 1.65 | 1.65 | 77 | 1006.1 |
| 20260507213231 | 75 | 101 | 2.0 | 2.0 | 0.00 | 1.65 | 1.65 | 76 | 1006.4 |
| 20260507212726 | 76 | 126 | 0.0 | 1.0 | 0.00 | 1.65 | 1.65 | 75 | 1006.4 |
| 20260507212223 | 76 | 120 | 0.0 | 1.0 | 0.00 | 1.65 | 1.65 | 75 | 1006.3 |
| 20260507211720 | 78 | 137 | 1.0 | 2.0 | 0.00 | 1.65 | 1.65 | 74 | 1006.4 |
| 20260507211216 | 77 | 132 | 1.0 | 2.0 | 0.00 | 1.65 | 1.65 | 73 | 1006.4 |
| 20260507210713 | 76 | 115 | 1.0 | 3.0 | 0.00 | 1.65 | 1.65 | 74 | 1006.3 |
| 20260507210210 | 76 | 121 | 1.0 | 1.0 | 0.00 | 1.65 | 1.65 | 76 | 1006.4 |
| 20260507205706 | 76 | 121 | 0.0 | 1.0 | 0.00 | 1.65 | 1.65 | 76 | 1006.5 |
| 20260507205203 | 76 | 123 | 0.0 | 1.0 | 0.00 | 1.65 | 1.65 | 75 | 1006.5 |
| 20260507204659 | 77 | 122 | 1.0 | 9.0 | 0.00 | 1.65 | 1.65 | 75 | 1006.7 |
| 20260507204157 | 77 | 130 | 0.0 | 1.0 | 0.00 | 1.65 | 1.65 | 74 | 1006.7 |
| 20260507203655 | 78 | 113 | 3.0 | 6.0 | 0.00 | 1.65 | 1.65 | 71 | 1006.3 |
| 20260507203152 | 79 | 128 | 1.0 | 3.0 | 0.00 | 1.65 | 1.65 | 71 | 1006.1 |
| 20260507202648 | 78 | 133 | 0.0 | 1.0 | 0.00 | 1.65 | 1.65 | 70 | 1006.3 |
| 20260507202144 | 79 | 97 | 3.0 | 3.0 | 0.00 | 1.65 | 1.65 | 69 | 1006.5 |
| 20260507201639 | 78 | 113 | 0.0 | 0.0 | 0.00 | 1.65 | 1.65 | 72 | 1006.8 |
| 20260507201137 | 78 | 107 | 2.0 | 3.0 | 0.00 | 1.65 | 1.65 | 69 | 1006.9 |
| 20260507200632 | 78 | 114 | 4.0 | 6.0 | 0.00 | 1.65 | 1.65 | 70 | 1006.7 |
| 20260507200129 | 79 | 137 | 1.0 | 3.0 | 0.00 | 1.65 | 1.65 | 70 | 1006.9 |
| 20260507195626 | 78 | 128 | 0.0 | 2.0 | 0.00 | 1.65 | 1.65 | 73 | 1006.6 |
| 20260507195123 | 75 | 131 | 0.0 | 1.0 | 0.00 | 1.65 | 1.65 | 75 | 1007.0 |
| 20260507194620 | 76 | 124 | 0.0 | 1.0 | 0.00 | 1.65 | 1.65 | 77 | 1007.3 |
| 20260507194115 | 77 | 131 | 1.0 | 3.0 | 0.00 | 1.65 | 1.65 | 73 | 1007.3 |
| 20260507193612 | 78 | 155 | 1.0 | 3.0 | 0.00 | 1.65 | 1.65 | 71 | 1007.1 |
| 20260507193109 | 78 | 110 | 1.0 | 2.0 | 0.00 | 1.65 | 1.65 | 71 | 1007.1 |
| 20260507192605 | 78 | 121 | 0.0 | 1.0 | 0.00 | 1.65 | 1.65 | 73 | 1007.4 |
| 20260507192103 | 78 | 138 | 1.0 | 2.0 | 0.00 | 1.65 | 1.65 | 73 | 1007.5 |
| 20260507191558 | 79 | 139 | 0.0 | 2.0 | 0.00 | 1.65 | 1.65 | 71 | 1007.4 |
| 20260507191055 | 78 | 131 | 0.0 | 0.0 | 0.00 | 1.65 | 1.65 | 73 | 1007.6 |
| 20260507190552 | 78 | 129 | 0.0 | 2.0 | 0.00 | 1.65 | 1.65 | 76 | 1008.0 |
| 20260507190051 | 77 | 53 | 2.0 | 3.0 | 0.00 | 1.65 | 1.65 | 73 | 1007.6 |
| 20260507185549 | 76 | 134 | 0.0 | 1.0 | 0.00 | 1.65 | 1.65 | 76 | 1007.7 |